createdAt,value
2019-02-28T00:02:58.445Z,99234.42
2019-02-28T00:06:12.812Z,99222.84
2019-02-28T00:09:26.443Z,99221.03
2019-02-28T00:12:40.342Z,99218.16
2019-02-28T00:15:54.179Z,99218.52
2019-02-28T00:19:07.879Z,99211.13
2019-02-28T00:22:21.638Z,99212.73
2019-02-28T00:25:37.776Z,99213.44
2019-02-28T00:28:50.465Z,99209.46
2019-02-28T00:32:04.042Z,99202.27
2019-02-28T00:35:17.778Z,99205.48
2019-02-28T00:38:31.227Z,99195.19
2019-02-28T00:41:44.967Z,99195.52
2019-02-28T00:45:02.371Z,99195.54
2019-02-28T00:48:14.212Z,99191.02
2019-02-28T00:51:29.687Z,99191.91
2019-02-28T00:54:44.483Z,99184.66
2019-02-28T00:57:58.099Z,99178.18
2019-02-28T01:01:12.541Z,99174.03
2019-02-28T01:04:26.234Z,99169.34
2019-02-28T01:07:40.462Z,99168.60
2019-02-28T01:10:54.028Z,99172.23
2019-02-28T01:14:07.496Z,99164.83
2019-02-28T01:17:20.952Z,99162.16
2019-02-28T01:20:34.673Z,99156.72
2019-02-28T01:23:48.181Z,99157.09
2019-02-28T01:27:01.656Z,99158.36
2019-02-28T01:30:15.972Z,99152.92
2019-02-28T01:33:29.430Z,99143.00
2019-02-28T01:36:42.904Z,99133.27
2019-02-28T01:39:56.455Z,99123.52
2019-02-28T01:43:09.916Z,99125.50
2019-02-28T01:46:23.399Z,99122.97
2019-02-28T01:49:37.173Z,99117.17
2019-02-28T01:52:50.906Z,99116.27
2019-02-28T01:56:04.379Z,99111.39
2019-02-28T01:59:18.084Z,99107.98
2019-02-28T02:02:31.568Z,99107.29
2019-02-28T02:05:45.011Z,99107.98
2019-02-28T02:08:58.746Z,99100.94
2019-02-28T02:12:12.506Z,99094.63
2019-02-28T02:15:25.954Z,99098.78
2019-02-28T02:18:40.302Z,99095.20
2019-02-28T02:21:54.779Z,99088.34
2019-02-28T02:25:08.554Z,99079.66
2019-02-28T02:28:26.755Z,99081.11
2019-02-28T02:31:37.622Z,99075.48
2019-02-28T02:34:51.078Z,99074.57
2019-02-28T02:38:04.919Z,99065.38
2019-02-28T02:41:19.021Z,99055.61
2019-02-28T02:44:32.520Z,99059.24
2019-02-28T02:47:46.085Z,99056.55
2019-02-28T02:50:59.788Z,99046.78
2019-02-28T02:54:17.839Z,99046.09
2019-02-28T02:57:28.617Z,99048.07
2019-02-28T03:00:49.602Z,99040.86
2019-02-28T03:03:57.743Z,99037.80
2019-02-28T03:07:11.230Z,99037.25
2019-02-28T03:10:25.039Z,99025.70
2019-02-28T03:13:43.695Z,99031.84
2019-02-28T03:16:53.863Z,99029.69
2019-02-28T03:20:08.884Z,99030.57
2019-02-28T03:23:22.757Z,99032.55
2019-02-28T03:26:41.338Z,99028.61
2019-02-28T03:29:51.818Z,99021.55
2019-02-28T03:33:05.456Z,99017.23
2019-02-28T03:36:19.034Z,99020.50
2019-02-28T03:39:32.494Z,99010.91
2019-02-28T03:42:46.360Z,99016.70
2019-02-28T03:45:59.823Z,99020.28
2019-02-28T03:49:13.532Z,99020.67
2019-02-28T03:52:27.036Z,99019.23
2019-02-28T03:55:41.571Z,99018.86
2019-02-28T03:58:55.382Z,99017.41
2019-02-28T04:02:08.957Z,99021.56
2019-02-28T04:05:27.168Z,99015.08
2019-02-28T04:08:38.130Z,99016.90
2019-02-28T04:11:51.701Z,99016.72
2019-02-28T04:15:10.209Z,99019.57
2019-02-28T04:18:22.443Z,99026.26
2019-02-28T04:21:35.910Z,99031.68
2019-02-28T04:24:49.374Z,99034.40
2019-02-28T04:28:02.972Z,99039.98
2019-02-28T04:31:20.029Z,99033.47
2019-02-28T04:34:31.814Z,99028.80
2019-02-28T04:37:47.147Z,99021.75
2019-02-28T04:41:01.039Z,99021.96
2019-02-28T04:44:15.441Z,99024.12
2019-02-28T04:47:30.174Z,99013.11
2019-02-28T04:50:43.915Z,99008.61
2019-02-28T04:53:57.386Z,99008.23
2019-02-28T04:57:10.847Z,99008.41
2019-02-28T05:00:24.301Z,99007.50
2019-02-28T05:03:37.758Z,99007.51
2019-02-28T05:06:52.166Z,99007.69
2019-02-28T05:10:07.120Z,99006.97
2019-02-28T05:13:20.850Z,99004.80
2019-02-28T05:16:34.301Z,99006.08
2019-02-28T05:19:47.776Z,99000.45
2019-02-28T05:23:02.591Z,99005.35
2019-02-28T05:26:16.636Z,99002.09
2019-02-28T05:29:30.108Z,99002.45
2019-02-28T05:32:43.574Z,99003.18
2019-02-28T05:36:00.167Z,98997.75
2019-02-28T05:39:12.511Z,99004.09
2019-02-28T05:42:25.952Z,98999.75
2019-02-28T05:45:39.643Z,98999.37
2019-02-28T05:48:53.096Z,98999.02
2019-02-28T05:52:06.597Z,99002.98
2019-02-28T05:55:24.241Z,99002.80
2019-02-28T05:58:35.524Z,98999.69
2019-02-28T06:01:48.969Z,99000.39
2019-02-28T06:05:02.850Z,98996.05
2019-02-28T06:08:16.335Z,99001.78
2019-02-28T06:11:34.539Z,99002.50
2019-02-28T06:14:45.133Z,99002.47
2019-02-28T06:17:58.840Z,99004.63
2019-02-28T06:21:12.416Z,99001.77
2019-02-28T06:24:25.915Z,99007.13
2019-02-28T06:27:41.881Z,98997.91
2019-02-28T06:30:55.463Z,99004.72
2019-02-28T06:34:09.383Z,98995.16
2019-02-28T06:37:24.007Z,98997.23
2019-02-28T06:40:37.611Z,99002.30
2019-02-28T06:43:53.089Z,99005.45
2019-02-28T06:47:06.476Z,99011.03
2019-02-28T06:50:20.130Z,99012.63
2019-02-28T06:53:36.382Z,99020.34
2019-02-28T06:56:49.928Z,99022.20
2019-02-28T07:00:04.480Z,99031.03
2019-02-28T07:03:18.280Z,99037.86
2019-02-28T07:06:35.735Z,99028.03
2019-02-28T07:09:47.779Z,99026.06
2019-02-28T07:13:04.536Z,99029.77
2019-02-28T07:16:17.672Z,99032.20
2019-02-28T07:19:31.155Z,99030.81
2019-02-28T07:22:44.643Z,99027.52
2019-02-28T07:25:58.244Z,99020.73
2019-02-28T07:29:12.219Z,99018.80
2019-02-28T07:32:26.224Z,99008.92
2019-02-28T07:35:39.915Z,99010.67
2019-02-28T07:38:53.478Z,99001.55
2019-02-28T07:42:07.299Z,99005.89
2019-02-28T07:45:20.907Z,99006.94
2019-02-28T07:48:34.389Z,99015.23
2019-02-28T07:51:48.117Z,99019.98
2019-02-28T07:55:01.972Z,99019.23
2019-02-28T07:58:15.547Z,99011.49
2019-02-28T08:01:29.418Z,99014.38
2019-02-28T08:04:43.723Z,99020.84
2019-02-28T08:07:57.476Z,99005.70
2019-02-28T08:11:10.984Z,99001.23
2019-02-28T08:14:24.576Z,99007.38
2019-02-28T08:17:40.591Z,99007.03
2019-02-28T08:20:53.661Z,99007.84
2019-02-28T08:24:07.149Z,99011.48
2019-02-28T08:27:20.635Z,98999.72
2019-02-28T08:30:34.515Z,98994.59
2019-02-28T08:33:49.206Z,98986.61
2019-02-28T08:37:02.923Z,98989.09
2019-02-28T08:40:17.487Z,98995.16
2019-02-28T08:43:31.035Z,98993.21
2019-02-28T08:46:46.516Z,98985.39
2019-02-28T08:49:59.911Z,98985.66
2019-02-28T08:53:15.394Z,98977.67
2019-02-28T08:56:29.138Z,98981.22
2019-02-28T08:59:42.883Z,98982.92
2019-02-28T09:02:56.724Z,98980.52
2019-02-28T09:06:10.300Z,98988.64
2019-02-28T09:09:23.868Z,98998.74
2019-02-28T09:12:37.750Z,98994.13
2019-02-28T09:15:51.327Z,98990.17
2019-02-28T09:19:04.800Z,98995.36
2019-02-28T09:22:18.268Z,98988.48
2019-02-28T09:25:32.037Z,98984.73
2019-02-28T09:28:48.406Z,98975.44
2019-02-28T09:32:10.215Z,98982.87
2019-02-28T09:35:24.832Z,98984.16
2019-02-28T09:38:38.332Z,98963.05
2019-02-28T09:41:52.006Z,98963.44
2019-02-28T09:45:08.314Z,98965.31
2019-02-28T09:48:22.113Z,98957.46
2019-02-28T09:51:36.019Z,98948.08
2019-02-28T09:54:49.485Z,98935.79
2019-02-28T09:58:03.152Z,98938.11
2019-02-28T10:01:16.862Z,98952.27
2019-02-28T10:04:31.284Z,98959.46
2019-02-28T10:07:45.048Z,98944.89
2019-02-28T10:10:58.714Z,98942.88
2019-02-28T10:14:12.313Z,98957.80
2019-02-28T10:17:28.740Z,98957.66
2019-02-28T10:20:41.338Z,98953.13
2019-02-28T10:23:56.990Z,98952.45
2019-02-28T10:27:10.401Z,98955.44
2019-02-28T10:30:31.190Z,98957.23
2019-02-28T10:33:39.694Z,98943.28
2019-02-28T10:36:53.374Z,98934.98
2019-02-28T10:40:08.603Z,98925.40
2019-02-28T10:43:22.178Z,98938.02
2019-02-28T10:46:36.130Z,98933.25
2019-02-28T10:49:49.730Z,98925.98
2019-02-28T10:53:05.443Z,98936.61
2019-02-28T10:56:19.274Z,98939.88
2019-02-28T10:59:32.992Z,98939.50
2019-02-28T11:02:46.979Z,98932.13
2019-02-28T11:06:00.442Z,98934.41
2019-02-28T11:09:21.864Z,98927.31
2019-02-28T11:12:34.855Z,98930.16
2019-02-28T11:15:49.381Z,98922.13
2019-02-28T11:19:03.907Z,98927.83
2019-02-28T11:22:17.471Z,98907.34
2019-02-28T11:25:34.547Z,98901.88
2019-02-28T11:28:46.709Z,98897.23
2019-02-28T11:32:00.371Z,98878.08
2019-02-28T11:35:14.278Z,98876.60
2019-02-28T11:38:27.851Z,98881.39
2019-02-28T11:41:41.423Z,98877.53
2019-02-28T11:44:56.332Z,98875.57
2019-02-28T11:48:10.307Z,98869.50
2019-02-28T11:51:23.777Z,98866.92
2019-02-28T11:54:37.647Z,98858.09
2019-02-28T11:57:51.538Z,98856.99
2019-02-28T12:01:10.220Z,98863.64
2019-02-28T12:04:21.035Z,98850.69
2019-02-28T12:07:35.671Z,98845.94
2019-02-28T12:10:49.382Z,98834.56
2019-02-28T12:14:03.058Z,98832.44
2019-02-28T12:17:16.543Z,98835.89
2019-02-28T12:20:30.136Z,98824.97
2019-02-28T12:23:43.607Z,98823.85
2019-02-28T12:26:57.332Z,98822.18
2019-02-28T12:30:18.743Z,98819.53
2019-02-28T12:33:32.214Z,98816.08
2019-02-28T12:36:46.382Z,98800.66
2019-02-28T12:40:01.864Z,98812.67
2019-02-28T12:43:15.758Z,98797.84
2019-02-28T12:46:31.908Z,98795.66
2019-02-28T12:49:45.321Z,98795.02
2019-02-28T12:52:58.790Z,98780.27
2019-02-28T12:56:14.278Z,98794.08
2019-02-28T12:59:28.197Z,98802.56
2019-02-28T13:02:43.517Z,98806.44
2019-02-28T13:05:57.284Z,98788.19
2019-02-28T13:09:13.594Z,98784.57
2019-02-28T13:12:26.646Z,98776.38
2019-02-28T13:15:40.122Z,98781.79
2019-02-28T13:18:54.926Z,98779.52
2019-02-28T13:22:08.499Z,98775.78
2019-02-28T13:25:23.594Z,98783.80
2019-02-28T13:28:37.770Z,98787.11
2019-02-28T13:31:51.466Z,98777.24
2019-02-28T13:35:08.690Z,98780.30
2019-02-28T13:38:22.342Z,98757.64
2019-02-28T13:41:36.132Z,98771.43
2019-02-28T13:44:49.907Z,98758.33
2019-02-28T13:48:03.867Z,98764.42
2019-02-28T13:51:17.406Z,98757.88
2019-02-28T13:54:30.989Z,98750.23
2019-02-28T13:57:46.647Z,98744.48
2019-02-28T14:00:59.977Z,98741.95
2019-02-28T14:04:13.465Z,98753.50
2019-02-28T14:07:30.251Z,98738.96
2019-02-28T14:10:43.072Z,98747.03
2019-02-28T14:13:56.759Z,98741.05
2019-02-28T14:17:10.242Z,98750.81
2019-02-28T14:20:24.375Z,98738.13
2019-02-28T14:23:39.472Z,98734.53
2019-02-28T14:26:53.062Z,98740.48
2019-02-28T14:30:08.788Z,98736.84
2019-02-28T14:33:22.377Z,98746.61
2019-02-28T14:36:35.857Z,98759.78
2019-02-28T14:39:49.436Z,98745.41
2019-02-28T14:43:03.209Z,98742.77
2019-02-28T14:46:18.266Z,98747.34
2019-02-28T14:49:32.069Z,98750.96
2019-02-28T14:52:45.890Z,98763.81
2019-02-28T14:56:00.367Z,98755.80
2019-02-28T14:59:13.847Z,98767.08
2019-02-28T15:02:28.714Z,98778.90
2019-02-28T15:05:42.627Z,98780.52
2019-02-28T15:08:56.256Z,98795.78
2019-02-28T15:12:10.056Z,98784.65
2019-02-28T15:15:23.671Z,98795.01
2019-02-28T15:18:37.149Z,98795.66
2019-02-28T15:21:51.032Z,98800.38
2019-02-28T15:25:04.972Z,98796.72
2019-02-28T15:28:18.983Z,98803.86
2019-02-28T15:31:32.462Z,98803.94
2019-02-28T15:34:45.943Z,98791.25
2019-02-28T15:37:59.634Z,98809.45
2019-02-28T15:41:13.107Z,98838.55
2019-02-28T15:44:29.365Z,98846.14
2019-02-28T15:47:41.985Z,98856.55
2019-02-28T15:50:55.469Z,98858.05
2019-02-28T15:54:09.228Z,98886.91
2019-02-28T15:57:22.680Z,98889.68
2019-02-28T16:00:36.692Z,98880.34
2019-02-28T16:03:51.311Z,98922.30
2019-02-28T16:07:05.811Z,98884.52
2019-02-28T16:10:21.061Z,98904.13
2019-02-28T16:13:34.904Z,98904.90
2019-02-28T16:16:48.491Z,98922.23
2019-02-28T16:20:02.374Z,98918.50
2019-02-28T16:23:15.847Z,98914.25
2019-02-28T16:26:29.595Z,98914.78
2019-02-28T16:29:43.433Z,98940.89
2019-02-28T16:32:57.012Z,98934.27
2019-02-28T16:36:10.831Z,98927.56
2019-02-28T16:39:24.282Z,98931.63
2019-02-28T16:42:37.762Z,98930.08
2019-02-28T16:45:51.466Z,98935.67
2019-02-28T16:49:07.409Z,98937.20
2019-02-28T16:52:20.957Z,98942.35
2019-02-28T16:55:34.512Z,98950.16
2019-02-28T16:58:48.343Z,98944.56
2019-02-28T17:02:01.916Z,98949.09
2019-02-28T17:05:15.485Z,98952.95
2019-02-28T17:08:31.938Z,98950.25
2019-02-28T17:11:54.309Z,98959.66
2019-02-28T17:15:13.880Z,98961.12
2019-02-28T17:18:28.219Z,98953.84
2019-02-28T17:21:42.234Z,98953.71
2019-02-28T17:24:55.776Z,98955.64
2019-02-28T17:28:19.373Z,98960.54
2019-02-28T17:31:50.792Z,98965.80
2019-02-28T17:35:05.667Z,98960.05
2019-02-28T17:38:19.229Z,98960.57
2019-02-28T17:41:34.029Z,98946.14
2019-02-28T17:45:00.507Z,98959.93
2019-02-28T17:49:05.786Z,98952.64
2019-02-28T17:52:25.332Z,98952.86
2019-02-28T17:56:22.599Z,98950.13
2019-02-28T17:59:44.260Z,98940.77
2019-02-28T18:03:44.994Z,98950.35
2019-02-28T18:07:44.294Z,98949.27
2019-02-28T18:11:25.392Z,98947.05
2019-02-28T18:14:44.776Z,98956.19
2019-02-28T18:18:32.618Z,98946.58
2019-02-28T18:22:27.426Z,98950.83
2019-02-28T18:25:57.520Z,98943.02
2019-02-28T18:29:42.309Z,98938.30
2019-02-28T18:32:55.778Z,98935.52
2019-02-28T18:36:11.730Z,98941.89
2019-02-28T18:39:25.578Z,98941.62
2019-02-28T18:42:39.166Z,98941.49
2019-02-28T18:45:53.566Z,98943.73
2019-02-28T18:49:07.110Z,98940.08
2019-02-28T18:52:20.566Z,98944.02
2019-02-28T18:55:35.137Z,98949.36
2019-02-28T18:58:48.787Z,98947.45
2019-02-28T19:02:02.372Z,98940.13
2019-02-28T19:05:15.841Z,98941.89
2019-02-28T19:08:29.395Z,98952.49
2019-02-28T19:11:42.860Z,98944.56
2019-02-28T19:14:56.313Z,98938.14
2019-02-28T19:18:09.875Z,98944.70
2019-02-28T19:21:23.327Z,98932.52
2019-02-28T19:24:36.783Z,98923.26
2019-02-28T19:27:50.262Z,98921.10
2019-02-28T19:31:03.936Z,98935.63
2019-02-28T19:34:17.484Z,98936.97
2019-02-28T19:37:31.115Z,98941.89
2019-02-28T19:40:44.577Z,98940.87
2019-02-28T19:43:58.148Z,98936.27
2019-02-28T19:47:11.632Z,98933.87
2019-02-28T19:50:25.231Z,98918.77
2019-02-28T19:53:38.686Z,98923.16
2019-02-28T19:56:52.151Z,98924.93
2019-02-28T20:00:07.695Z,98929.39
2019-02-28T20:03:21.156Z,98923.59
2019-02-28T20:06:34.606Z,98917.40
2019-02-28T20:09:48.078Z,98921.34
2019-02-28T20:13:01.629Z,98912.27
2019-02-28T20:16:15.324Z,98912.41
2019-02-28T20:19:28.787Z,98899.77
2019-02-28T20:22:42.440Z,98899.98
2019-02-28T20:25:55.912Z,98887.93
2019-02-28T20:29:09.477Z,98898.49
2019-02-28T20:32:23.160Z,98890.30
2019-02-28T20:35:36.723Z,98897.95
2019-02-28T20:38:50.407Z,98895.70
2019-02-28T20:42:03.870Z,98892.39
2019-02-28T20:45:17.852Z,98890.39
2019-02-28T20:48:31.355Z,98883.27
2019-02-28T20:51:54.631Z,98873.22
2019-02-28T20:55:00.379Z,98867.64
2019-02-28T20:58:15.994Z,98857.86
2019-02-28T21:01:29.511Z,98856.63
2019-02-28T21:04:42.968Z,98849.41
2019-02-28T21:07:56.776Z,98846.69
2019-02-28T21:11:10.408Z,98847.88
2019-02-28T21:14:23.955Z,98843.84
2019-02-28T21:17:37.714Z,98849.78
2019-02-28T21:20:51.170Z,98843.41
2019-02-28T21:24:04.721Z,98838.55
2019-02-28T21:27:18.179Z,98833.94
2019-02-28T21:34:47.593Z,98815.55
2019-02-28T21:38:01.150Z,98819.30
2019-02-28T21:41:14.831Z,98817.03
2019-02-28T21:44:28.555Z,98817.66
2019-02-28T21:47:42.151Z,98817.97
2019-02-28T21:50:55.613Z,98815.27
2019-02-28T21:54:09.072Z,98814.73
2019-02-28T21:57:22.571Z,98802.61
2019-02-28T22:00:36.130Z,98806.23
2019-02-28T22:03:49.686Z,98807.06
2019-02-28T22:07:03.358Z,98804.23
2019-02-28T22:10:17.235Z,98791.83
2019-02-28T22:13:30.870Z,98794.90
2019-02-28T22:16:44.434Z,98783.14
2019-02-28T22:19:58.134Z,98782.66
2019-02-28T22:23:11.599Z,98779.83
2019-02-28T22:26:25.387Z,98785.11
2019-02-28T22:29:38.850Z,98780.86
2019-02-28T22:32:54.526Z,98775.46
2019-02-28T22:36:09.912Z,98768.66
2019-02-28T22:39:24.128Z,98758.97
2019-02-28T22:42:37.579Z,98751.75
2019-02-28T22:45:51.361Z,98744.28
2019-02-28T22:49:04.930Z,98739.94
2019-02-28T22:52:18.392Z,98736.95
2019-02-28T22:55:32.513Z,98734.86
2019-02-28T22:58:46.078Z,98731.54
2019-02-28T23:01:59.990Z,98727.70
2019-02-28T23:05:13.448Z,98717.22
2019-02-28T23:08:27.235Z,98716.36
2019-02-28T23:11:40.919Z,98717.81
2019-02-28T23:14:54.686Z,98714.46
2019-02-28T23:18:08.151Z,98710.31
2019-02-28T23:21:21.600Z,98711.53
2019-02-28T23:24:35.067Z,98704.28
2019-02-28T23:27:48.930Z,98696.33
2019-02-28T23:31:33.723Z,98704.11
2019-02-28T23:34:50.392Z,98703.22
2019-02-28T23:38:04.092Z,98686.83
2019-02-28T23:41:17.523Z,98704.94
2019-02-28T23:44:32.567Z,98702.38
2019-02-28T23:47:46.030Z,98705.20
2019-02-28T23:50:59.499Z,98704.47
2019-02-28T23:54:13.203Z,98694.91
2019-02-28T23:57:26.995Z,98694.78
